Aeroporto :
LOGIN :

Iscrizione | Disclaimer

   EN    FR    IT 

 










Sommario :    VFR   VFR Marginale   IFR   IFR Intensivo   IFR Molto Intensivo
Visibilità : 
Base nubi : 
>= 8 km
>= 3000ft
5 / 8 km
1000 / 3000 ft
1500m / 5 km
500 / 1000 ft
800 / 1500m
200 / 500 ft
< 800m
< 200 ft
Simboli :   Temporali  Nebbia  Neve Forte  Precipitazioni Forti  Vento > 20 kt
SIGMETs :   Varie  Temporali  Ghiacco  Turbolenza  Onda orograficha  Ceneri Vulcaniche







- Altitudine del aeroporto : 1306 ft
- Codice IATA : ACH


LSZR - Alten Rhein

ULTIMO METAR :
  • 202050Z AUTO 14005KT 9999 RA BKN009 14/14 Q1028

METARs OBSOLETI :
  • 202020Z AUTO 17002KT 7000 RA BKN009 SCT014 14/14 Q1028
  • 201950Z AUTO 20002KT 9999 -RA BKN010 14/14 Q1028
  • 201920Z AUTO 29007KT 8000 RA SCT007 SCT014 BKN040 15/14 Q1028
  • 201850Z 32005KT 4500 RA FEW008 SCT020 BKN030 14/14 Q1028 NOSIG RMK R
  • 201820Z VRB03KT 3600 -RA SCT009 BKN024 15/14 Q1027 NOSIG RMK O

TAF TAF LSZR
Valido dal 20 a 15 ore il 21 a 00 ore UTC


201425Z 2015/2024 26005KT 9999 -RA FEW007 SCT012 BKN020
TEMPO 2015/2022 4500 RA BKN010
TEMPO 2016/2021 2500 +RA BKN004
ATIS : +41 71 858 51 66
Nessun NOTAM noto per questo aeroporto.



MetMap, La meteo Aeronautica in un colpo d'occhio ! - Copyright ORBIFLY Dicembre 2007 - Disclaimer

ORBIFLY MET'MAP TEAM :

Programmazione e sviluppo : Alexandra Zaïnal
Concezione e sviluppo : Baudouin d'Aumeries
Co-Programmazione e sviluppo : Marc-Olivier Méhu
Supporto tecnico e logistico : Manuel Goepfert
Aiuto per la traduzione : Arnaldo La Scala

Contatto : metmap@orbifly.com




FONTI E CREDITI :

   NOAA